createdAt,value
2023-01-02T00:02:23.744Z,6.96
2023-01-02T00:07:29.853Z,6.04
2023-01-02T00:12:35.989Z,6.82
2023-01-02T00:17:42.149Z,5.27
2023-01-02T00:22:48.211Z,5.52
2023-01-02T00:27:54.468Z,5.96
2023-01-02T00:33:00.612Z,5.26
2023-01-02T00:38:06.894Z,5.89
2023-01-02T00:43:12.959Z,5.48
2023-01-02T00:48:19.190Z,5.49
2023-01-02T00:53:25.386Z,7.30
2023-01-02T00:58:31.595Z,6.23
2023-01-02T01:03:37.663Z,5.49
2023-01-02T01:08:43.960Z,5.51
2023-01-02T01:13:50.038Z,5.33
2023-01-02T01:18:56.253Z,5.98
2023-01-02T01:24:02.359Z,6.96
2023-01-02T01:29:08.572Z,6.84
2023-01-02T01:34:14.814Z,6.82
2023-01-02T01:39:21.097Z,7.30
2023-01-02T01:44:27.153Z,6.18
2023-01-02T01:49:33.360Z,5.65
2023-01-02T01:54:39.526Z,6.09
2023-01-02T01:59:45.671Z,4.93
2023-01-02T02:04:51.756Z,5.28
2023-01-02T02:09:57.961Z,5.98
2023-01-02T02:15:04.031Z,6.66
2023-01-02T02:20:10.268Z,6.25
2023-01-02T02:25:16.319Z,5.39
2023-01-02T02:30:22.476Z,7.14
2023-01-02T02:35:28.557Z,6.37
2023-01-02T02:40:34.761Z,7.17
2023-01-02T02:45:41.876Z,6.99
2023-01-02T02:50:48.037Z,6.34
2023-01-02T02:55:54.232Z,6.41
2023-01-02T03:01:00.447Z,5.95
2023-01-02T03:06:06.583Z,7.37
2023-01-02T03:11:12.873Z,8.19
2023-01-02T03:16:20.409Z,8.46
2023-01-02T03:21:30.910Z,8.18
2023-01-02T03:26:32.252Z,6.82
2023-01-02T03:31:38.446Z,6.29
2023-01-02T03:36:44.752Z,7.09
2023-01-02T03:41:51.223Z,7.73
2023-01-02T03:46:57.322Z,7.44
2023-01-02T03:52:03.553Z,12.53
2023-01-02T03:57:11.115Z,6.45
2023-01-02T04:02:15.591Z,7.85
2023-01-02T04:07:21.478Z,7.71
2023-01-02T04:12:27.677Z,8.43
2023-01-02T04:17:34.120Z,8.69
2023-01-02T04:22:41.472Z,8.09
2023-01-02T04:27:47.536Z,9.11
2023-01-02T04:32:53.776Z,7.25
2023-01-02T04:37:59.897Z,6.86
2023-01-02T04:43:07.222Z,6.69
2023-01-02T04:48:13.426Z,7.81
2023-01-02T04:53:19.604Z,5.98
2023-01-02T04:58:25.772Z,7.05
2023-01-02T05:03:32.043Z,8.89
2023-01-02T05:08:38.081Z,8.05
2023-01-02T05:13:44.291Z,8.56
2023-01-02T05:18:50.535Z,5.83
2023-01-02T05:23:56.797Z,7.49
2023-01-02T05:29:03.897Z,7.27
2023-01-02T05:34:10.091Z,7.57
2023-01-02T05:39:16.161Z,7.34
2023-01-02T05:44:22.471Z,6.61
2023-01-02T05:49:28.580Z,5.53
2023-01-02T05:54:35.054Z,6.22
2023-01-02T05:59:41.159Z,6.46
2023-01-02T06:04:47.388Z,6.68
2023-01-02T06:09:53.514Z,5.40
2023-01-02T06:14:59.871Z,6.19
2023-01-02T06:20:06.006Z,7.04
2023-01-02T06:25:12.480Z,7.25
2023-01-02T06:30:18.697Z,8.31
2023-01-02T06:35:24.976Z,7.23
2023-01-02T06:40:31.117Z,6.74
2023-01-02T06:45:37.292Z,8.72
2023-01-02T06:50:43.330Z,7.01
2023-01-02T06:55:49.501Z,8.46
2023-01-02T07:00:55.635Z,7.04
2023-01-02T07:06:01.791Z,7.29
2023-01-02T07:11:07.864Z,8.19
2023-01-02T07:16:14.068Z,7.12
2023-01-02T07:21:20.059Z,7.07
2023-01-02T07:26:26.206Z,6.99
2023-01-02T07:31:32.347Z,6.18
2023-01-02T07:36:38.559Z,6.84
2023-01-02T07:41:44.649Z,6.02
2023-01-02T07:46:50.849Z,6.31
2023-01-02T07:51:56.941Z,6.39
2023-01-02T07:57:03.413Z,6.09
2023-01-02T08:02:09.680Z,5.73
2023-01-02T08:07:15.743Z,4.75
2023-01-02T08:12:21.834Z,6.53
2023-01-02T08:17:27.992Z,4.73
2023-01-02T08:22:34.057Z,4.68
2023-01-02T08:27:40.296Z,5.20
2023-01-02T08:32:46.410Z,4.81
2023-01-02T08:37:52.624Z,5.02
2023-01-02T08:42:59.433Z,5.56
2023-01-02T08:48:20.854Z,5.20
2023-01-02T08:53:12.947Z,5.20
2023-01-02T08:58:17.071Z,6.02
2023-01-02T09:03:23.169Z,4.90
2023-01-02T09:08:29.360Z,4.16
2023-01-02T09:13:35.569Z,4.73
2023-01-02T09:18:41.711Z,5.05
2023-01-02T09:23:47.815Z,3.95
2023-01-02T09:28:54.045Z,5.20
2023-01-02T09:34:00.118Z,2.45
2023-01-02T09:39:06.485Z,2.73
2023-01-02T09:44:12.533Z,1.47
2023-01-02T09:49:18.794Z,1.51
2023-01-02T09:54:24.857Z,1.79
2023-01-02T09:59:31.040Z,1.52
2023-01-02T10:04:37.102Z,1.57
2023-01-02T10:09:43.301Z,1.55
2023-01-02T10:14:49.728Z,1.59
2023-01-02T10:19:55.949Z,1.20
2023-01-02T10:25:02.388Z,1.20
2023-01-02T10:30:08.575Z,0.91
2023-01-02T10:35:14.672Z,1.06
2023-01-02T10:40:20.916Z,1.12
2023-01-02T10:45:26.975Z,1.39
2023-01-02T10:50:33.209Z,1.12
2023-01-02T10:55:39.320Z,1.37
2023-01-02T11:00:45.633Z,0.89
2023-01-02T11:06:27.541Z,0.82
2023-01-02T11:11:26.699Z,1.17
2023-01-02T11:16:32.911Z,1.23
2023-01-02T11:21:39.062Z,1.11
2023-01-02T11:22:53.305Z,1.23
2023-01-02T11:27:59.398Z,1.27
2023-01-02T11:33:05.545Z,1.48
2023-01-02T11:38:11.587Z,1.17
2023-01-02T11:43:17.760Z,1.35
2023-01-02T11:48:23.839Z,1.22
2023-01-02T11:53:29.985Z,1.22
2023-01-02T11:58:36.102Z,1.01
2023-01-02T12:03:42.464Z,1.05
2023-01-02T12:08:51.559Z,1.02
2023-01-02T12:13:54.328Z,1.23
2023-01-02T12:19:00.412Z,1.16
2023-01-02T12:24:06.571Z,0.92
2023-01-02T12:29:12.644Z,1.37
2023-01-02T12:34:18.851Z,1.14
2023-01-02T12:39:24.952Z,1.42
2023-01-02T12:44:33.751Z,1.08
2023-01-02T12:49:36.767Z,0.90
2023-01-02T12:54:42.927Z,0.81
2023-01-02T12:59:48.995Z,0.84
2023-01-02T13:04:55.166Z,0.94
2023-01-02T13:10:01.331Z,0.93
2023-01-02T13:15:07.800Z,1.09
2023-01-02T13:20:13.951Z,1.05
2023-01-02T13:25:20.145Z,1.49
2023-01-02T13:30:26.244Z,1.22
2023-01-02T13:35:32.450Z,1.83
2023-01-02T13:40:38.494Z,1.03
2023-01-02T13:45:44.750Z,0.97
2023-01-02T13:50:50.754Z,1.43
2023-01-02T13:55:56.894Z,1.43
2023-01-02T14:01:03.006Z,1.93
2023-01-02T14:06:09.165Z,1.30
2023-01-02T14:11:15.250Z,1.95
2023-01-02T14:16:21.377Z,1.83
2023-01-02T14:21:27.435Z,1.46
2023-01-02T14:26:33.689Z,1.91
2023-01-02T14:31:39.839Z,1.77
2023-01-02T14:36:46.089Z,2.17
2023-01-02T14:41:52.143Z,2.19
2023-01-02T14:46:58.393Z,1.68
2023-01-02T14:52:04.837Z,3.24
2023-01-02T14:57:10.988Z,2.31
2023-01-02T15:02:17.701Z,1.94
2023-01-02T15:07:23.830Z,4.02
2023-01-02T15:12:29.904Z,3.15
2023-01-02T15:17:36.263Z,2.78
2023-01-02T15:22:42.330Z,4.23
2023-01-02T15:27:48.559Z,3.11
2023-01-02T15:32:54.673Z,3.53
2023-01-02T15:38:01.165Z,3.68
2023-01-02T15:43:07.535Z,3.80
2023-01-02T15:48:13.878Z,2.73
2023-01-02T15:53:19.933Z,5.15
2023-01-02T15:58:26.342Z,5.01
2023-01-02T16:04:02.744Z,4.92
2023-01-02T16:08:38.394Z,4.51
2023-01-02T16:13:44.245Z,4.19
2023-01-02T16:18:50.405Z,4.43
2023-01-02T16:23:56.504Z,4.77
2023-01-02T16:29:02.669Z,4.92
2023-01-02T16:34:08.776Z,4.57
2023-01-02T16:39:15.026Z,4.66
2023-01-02T16:44:21.155Z,6.37
2023-01-02T16:49:27.322Z,8.40
2023-01-02T16:54:33.418Z,4.40
2023-01-02T16:59:39.564Z,5.08
2023-01-02T17:04:45.636Z,2.97
2023-01-02T17:09:51.869Z,2.72
2023-01-02T17:14:58.086Z,3.53
2023-01-02T17:20:04.417Z,4.43
2023-01-02T17:25:10.444Z,11.79
2023-01-02T17:30:16.721Z,3.22
2023-01-02T17:35:22.907Z,3.01
2023-01-02T17:40:29.101Z,3.90
2023-01-02T17:45:35.274Z,3.11
2023-01-02T17:50:41.416Z,4.81
2023-01-02T17:55:47.576Z,4.23
2023-01-02T18:00:53.931Z,3.12
2023-01-02T18:06:00.130Z,3.98
2023-01-02T18:11:06.370Z,2.91
2023-01-02T18:16:12.666Z,3.58
2023-01-02T18:21:18.786Z,3.08
2023-01-02T18:26:24.867Z,2.29
2023-01-02T18:31:31.151Z,2.23
2023-01-02T18:36:37.302Z,2.58
2023-01-02T18:41:43.520Z,3.56
2023-01-02T18:47:03.723Z,3.65
2023-01-02T18:51:55.396Z,3.08
2023-01-02T18:57:01.525Z,2.55
2023-01-02T19:02:07.938Z,2.43
2023-01-02T19:07:13.982Z,3.81
2023-01-02T19:12:20.248Z,5.80
2023-01-02T19:17:26.395Z,4.20
2023-01-02T19:22:32.602Z,3.00
2023-01-02T19:27:38.718Z,5.17
2023-01-02T19:32:44.970Z,4.07
2023-01-02T19:37:51.089Z,7.67
2023-01-02T19:42:57.297Z,4.08
2023-01-02T19:48:03.473Z,4.82
2023-01-02T19:53:09.681Z,3.92
2023-01-02T19:58:15.858Z,3.52
2023-01-02T20:03:22.186Z,5.17
2023-01-02T20:08:28.295Z,4.11
2023-01-02T20:13:34.497Z,4.50
2023-01-02T20:18:40.656Z,4.55
2023-01-02T20:23:50.280Z,4.38
2023-01-02T20:28:52.628Z,5.46
2023-01-02T20:33:58.909Z,5.25
2023-01-02T20:39:05.077Z,5.99
2023-01-02T20:44:11.267Z,4.82
2023-01-02T20:49:17.330Z,5.99
2023-01-02T20:54:23.722Z,3.68
2023-01-02T20:59:29.834Z,5.76
2023-01-02T21:04:37.206Z,5.73
2023-01-02T21:09:41.649Z,4.82
2023-01-02T21:14:47.869Z,5.48
2023-01-02T21:19:53.993Z,5.18
2023-01-02T21:25:00.255Z,6.36
2023-01-02T21:30:06.388Z,4.47
2023-01-02T21:35:12.941Z,7.56
2023-01-02T21:41:25.730Z,6.16
2023-01-02T21:46:32.036Z,5.23
2023-01-02T21:51:38.125Z,6.07
2023-01-02T21:56:44.524Z,5.27
2023-01-02T22:01:50.747Z,4.86
2023-01-02T22:07:30.763Z,6.85
2023-01-02T22:12:02.835Z,3.66
2023-01-02T22:17:09.141Z,9.16
2023-01-02T22:22:15.197Z,6.19
2023-01-02T22:27:21.455Z,4.32
2023-01-02T22:32:27.576Z,3.48
2023-01-02T22:37:33.805Z,3.78
2023-01-02T22:42:59.643Z,4.80
2023-01-02T22:47:45.670Z,5.77
2023-01-02T22:52:51.745Z,4.15
2023-01-02T22:57:58.027Z,4.68
2023-01-02T23:03:04.116Z,3.85
2023-01-02T23:08:10.328Z,4.48
2023-01-02T23:13:16.499Z,4.35
2023-01-02T23:18:22.754Z,5.45
2023-01-02T23:23:28.897Z,3.89
2023-01-02T23:29:05.384Z,3.96
2023-01-02T23:33:40.731Z,4.58
2023-01-02T23:38:47.051Z,3.16
2023-01-02T23:43:53.143Z,4.11
2023-01-02T23:48:59.294Z,4.71
2023-01-02T23:54:05.488Z,3.39
2023-01-02T23:59:11.763Z,4.25
